Time;durP1;ratioP1;P1;durP2;ratioP2;P2;SDS_P1;SDS_P2;PMS_P1;PMS_P2;Temp;Humidity;BMP_temperature;BMP_pressure;BME280_temperature;BME280_humidity;BME280_pressure;Samples;Min_cycle;Max_cycle;Signal;HPM_P1;HPM_P2
2023/01/18 00:06:11;;;;;;;1.00;1.00;;;;;;;7.14;67.89;97615.97;18493762;32;20073;-60
2023/01/18 00:16:17;;;;;;;0.60;0.60;;;;;;;6.71;68.62;97625.16;18492817;32;20449;-60
2023/01/18 00:26:20;;;;;;;0.60;0.60;;;;;;;6.08;71.22;97619.19;18493748;32;20132;-60
2023/01/18 00:36:25;;;;;;;0.57;0.57;;;;;;;4.92;74.86;97565.31;18500675;32;20092;-60
2023/01/18 00:46:28;;;;;;;0.60;0.60;;;;;;;5.18;74.89;97550.88;18499832;32;20153;-60
2023/01/18 00:56:32;;;;;;;0.80;0.80;;;;;;;6.10;71.11;97645.06;18499986;32;20166;-60
2023/01/18 01:06:44;;;;;;;0.60;0.60;;;;;;;6.43;70.35;97711.50;18499771;32;20124;-60
2023/01/18 01:27:11;;;;;;;0.60;0.60;;;;;;;6.17;71.48;97713.94;18499035;32;20412;-60
2023/01/18 01:37:15;;;;;;;0.75;0.75;;;;;;;5.44;73.39;97684.72;18498378;32;20657;-60
2023/01/18 01:47:30;;;;;;;0.70;0.70;;;;;;;5.80;72.79;97658.78;18499443;32;20108;-60
2023/01/18 01:57:38;;;;;;;0.85;0.85;;;;;;;5.65;73.71;97690.28;18498663;32;20093;-60
2023/01/18 02:07:41;;;;;;;0.60;0.60;;;;;;;6.56;70.22;97723.22;18498219;32;20487;-60
2023/01/18 02:18:10;;;;;;;0.60;0.60;;;;;;;6.25;70.95;97719.75;18498027;32;20696;-60
2023/01/18 02:28:16;;;;;;;0.68;0.68;;;;;;;6.32;70.54;97732.53;18497701;32;20654;-60
2023/01/18 02:38:23;;;;;;;0.70;0.70;;;;;;;6.75;69.26;97753.78;18497475;32;20092;-60
2023/01/18 02:48:33;;;;;;;0.70;0.70;;;;;;;7.01;68.32;97759.94;18496592;32;20141;-60
2023/01/18 02:58:39;;;;;;;0.60;0.60;;;;;;;6.49;69.76;97768.34;18497195;32;20111;-60
2023/01/18 03:08:46;;;;;;;0.70;0.70;;;;;;;6.83;69.02;97753.56;18496702;32;20110;-60
2023/01/18 03:19:01;;;;;;;0.68;0.68;;;;;;;6.87;69.55;97775.94;18496002;32;20089;-60
2023/01/18 03:39:27;;;;;;;;;;;;;;;7.01;69.00;97758.19;18495830;32;20497;-60
2023/01/18 03:49:32;;;;;;;0.50;0.50;;;;;;;6.89;69.40;97759.44;18495416;32;20330;-60
2023/01/18 03:59:37;;;;;;;0.60;0.60;;;;;;;6.94;69.21;97735.94;18494824;32;20092;-60
2023/01/18 04:09:42;;;;;;;0.57;0.57;;;;;;;6.99;68.82;97713.31;18495089;32;20103;-60
2023/01/18 04:19:46;;;;;;;0.60;0.60;;;;;;;6.93;69.20;97727.31;18493342;32;20103;-60
2023/01/18 04:29:50;;;;;;;0.60;0.60;;;;;;;7.12;68.58;97744.91;18492276;32;20096;-60
2023/01/18 04:39:53;;;;;;;0.55;0.55;;;;;;;7.21;68.80;97759.34;18491815;32;20092;-60
2023/01/18 04:49:58;;;;;;;0.80;0.80;;;;;;;7.24;68.74;97727.25;18492148;32;20089;-60
2023/01/18 05:00:01;;;;;;;0.60;0.60;;;;;;;7.20;68.73;97739.47;18490809;32;20097;-60
2023/01/18 05:10:06;;;;;;;0.80;0.80;;;;;;;7.14;69.11;97781.19;18489923;32;20137;-60
2023/01/18 05:20:11;;;;;;;0.60;0.60;;;;;;;7.16;69.62;97758.63;18498182;32;20089;-60
2023/01/18 05:30:17;;;;;;;1.58;1.40;;;;;;;7.45;68.74;97798.41;18498995;32;20115;-60
2023/01/18 05:40:20;;;;;;;0.55;0.55;;;;;;;7.28;69.51;97854.25;18498872;32;20097;-60
2023/01/18 05:50:26;;;;;;;0.50;0.50;;;;;;;7.41;69.49;97859.09;18498532;32;20108;-60
2023/01/18 06:00:29;;;;;;;0.85;0.85;;;;;;;7.40;69.75;97836.63;18499316;32;20096;-60
2023/01/18 06:10:34;;;;;;;0.70;0.70;;;;;;;7.44;69.80;97838.25;18497864;32;20092;-60
2023/01/18 06:20:37;;;;;;;0.55;0.55;;;;;;;7.35;70.18;97798.69;18497817;32;20453;-60
2023/01/18 06:30:42;;;;;;;0.60;0.60;;;;;;;7.55;69.72;97814.56;18497694;32;20111;-60
2023/01/18 06:40:45;;;;;;;0.70;0.70;;;;;;;7.81;68.39;97820.63;18494596;32;20159;-60
2023/01/18 06:50:51;;;;;;;0.60;0.60;;;;;;;7.53;68.90;97844.87;18438275;32;20187;-60
2023/01/18 07:00:55;;;;;;;0.60;0.60;;;;;;;7.00;70.64;97803.19;18429723;32;20123;-60
2023/01/18 07:11:04;;;;;;;0.60;0.60;;;;;;;7.32;69.51;97832.53;18466383;32;20137;-60
2023/01/18 07:21:07;;;;;;;0.60;0.60;;;;;;;7.51;69.50;97881.28;18431553;32;20088;-61
2023/01/18 07:31:12;;;;;;;0.60;0.60;;;;;;;7.49;69.09;97894.31;18492784;32;20088;-60
2023/01/18 07:41:16;;;;;;;0.50;0.50;;;;;;;7.46;68.75;97896.13;18494349;32;20145;-59
2023/01/18 07:51:21;;;;;;;0.70;0.70;;;;;;;7.47;67.63;97962.72;18494847;32;20112;-60
2023/01/18 08:01:25;;;;;;;0.60;0.60;;;;;;;7.40;66.81;97966.37;18494412;32;20093;-60
2023/01/18 08:11:30;;;;;;;0.62;0.62;;;;;;;6.96;67.50;97992.66;18494132;32;20100;-60
2023/01/18 08:21:33;;;;;;;0.60;0.60;;;;;;;6.59;70.12;98017.78;18493595;32;20119;-60
2023/01/18 08:31:38;;;;;;;0.47;0.47;;;;;;;7.12;69.41;98039.84;18492730;32;20139;-60
2023/01/18 08:41:41;;;;;;;0.60;0.60;;;;;;;7.05;69.05;98076.31;18492213;32;20149;-59
2023/01/18 08:51:45;;;;;;;0.68;0.68;;;;;;;6.94;68.42;98093.88;18497159;32;20089;-60
2023/01/18 09:01:48;;;;;;;0.50;0.50;;;;;;;6.84;69.10;98119.16;18500280;32;20123;-60
2023/01/18 09:11:54;;;;;;;0.30;0.30;;;;;;;7.15;68.15;98122.78;18500452;32;20115;-60
2023/01/18 09:21:58;;;;;;;0.50;0.50;;;;;;;7.17;68.37;98163.38;18500207;32;20380;-60
2023/01/18 09:32:06;;;;;;;0.50;0.50;;;;;;;7.20;67.67;98185.78;18499507;32;20104;-60
2023/01/18 09:42:17;;;;;;;0.50;0.50;;;;;;;7.40;67.40;98224.22;18499090;32;20132;-60
2023/01/18 09:52:41;;;;;;;0.50;0.50;;;;;;;7.13;68.20;98275.06;18491216;32;20101;-60
2023/01/18 10:02:47;;;;;;;0.50;0.50;;;;;;;7.01;68.89;98309.91;18436402;32;20081;-60
2023/01/18 10:12:57;;;;;;;0.80;0.80;;;;;;;7.10;69.26;98312.28;18433854;32;20103;-60
2023/01/18 10:23:03;;;;;;;0.50;0.50;;;;;;;7.20;69.01;98316.37;18438215;32;20114;-59
2023/01/18 10:33:15;;;;;;;0.50;0.50;;;;;;;7.44;67.87;98324.50;18497549;32;20089;-58
2023/01/18 10:43:19;;;;;;;;;;;;;;;7.62;67.11;98369.97;18497154;32;20134;-58
2023/01/18 10:53:30;;;;;;;0.50;0.50;;;;;;;7.92;66.50;98379.69;18493572;32;19980;-58
2023/01/18 11:03:37;;;;;;;0.60;0.60;;;;;;;8.17;66.39;98392.06;18496691;32;20104;-59
2023/01/18 11:13:43;;;;;;;0.60;0.60;;;;;;;8.38;65.93;98402.81;18495877;32;20391;-58
2023/01/18 11:23:48;;;;;;;0.50;0.50;;;;;;;8.68;64.51;98419.41;18496063;32;20097;-58
2023/01/18 11:33:57;;;;;;;0.60;0.60;;;;;;;8.71;64.42;98454.91;18484888;32;244784;-58
2023/01/18 11:44:04;;;;;;;0.40;0.40;;;;;;;8.65;64.16;98489.75;18481906;32;20089;-58
2023/01/18 11:54:17;;;;;;;0.60;0.60;;;;;;;8.73;63.42;98493.00;18490061;32;20183;-58
2023/01/18 12:04:31;;;;;;;0.60;0.60;;;;;;;8.96;63.68;98514.09;18493492;32;20111;-59
2023/01/18 12:14:46;;;;;;;0.50;0.50;;;;;;;8.98;63.22;98536.59;18492254;32;20088;-58
2023/01/18 12:24:59;;;;;;;0.50;0.50;;;;;;;9.33;62.63;98569.56;18494781;32;20104;-59
2023/01/18 12:35:17;;;;;;;0.40;0.40;;;;;;;9.67;63.67;98585.13;18496221;32;20377;-59
2023/01/18 12:45:34;;;;;;;0.60;0.60;;;;;;;10.20;60.56;98604.50;18495266;32;20122;-58
2023/01/18 12:55:40;;;;;;;0.50;0.50;;;;;;;10.14;58.01;98621.16;18497878;32;20149;-59
2023/01/18 13:05:51;;;;;;;0.60;0.60;;;;;;;10.43;56.91;98616.03;18496709;32;20110;-59
2023/01/18 13:16:01;;;;;;;0.93;0.93;;;;;;;10.68;57.88;98637.00;18499734;32;20089;-58
2023/01/18 13:26:16;;;;;;;0.52;0.52;;;;;;;10.80;56.17;98661.88;18497420;32;20102;-59
2023/01/18 13:36:21;;;;;;;0.50;0.50;;;;;;;10.93;55.38;98691.06;18494005;32;20097;-59
2023/01/18 13:46:25;;;;;;;0.50;0.50;;;;;;;10.77;56.08;98708.09;18496794;32;20107;-59
2023/01/18 13:56:30;;;;;;;0.70;0.70;;;;;;;10.65;55.83;98724.94;18496548;32;20175;-59
2023/01/18 14:06:36;;;;;;;0.50;0.50;;;;;;;10.94;55.46;98749.31;18496745;32;20159;-59
2023/01/18 14:16:54;;;;;;;0.50;0.50;;;;;;;10.67;56.85;98724.00;18493348;32;20434;-58
2023/01/18 14:26:59;;;;;;;0.57;0.57;;;;;;;10.77;56.95;98723.75;18498025;32;20154;-59
2023/01/18 14:37:04;;;;;;;0.50;0.50;;;;;;;10.61;58.59;98768.53;18497616;32;20093;-59
2023/01/18 14:47:14;;;;;;;0.88;0.88;;;;;;;10.53;58.89;98774.00;18495983;32;20437;-59
2023/01/18 14:57:28;;;;;;;0.82;0.60;;;;;;;10.44;58.91;98776.84;18488054;32;20084;-58
2023/01/18 15:07:32;;;;;;;0.50;0.50;;;;;;;10.36;59.14;98810.09;18484723;32;20115;-59
2023/01/18 15:17:37;;;;;;;0.68;0.68;;;;;;;10.17;60.54;98810.56;18496458;32;20366;-58
2023/01/18 15:27:41;;;;;;;1.05;1.05;;;;;;;9.85;61.54;98800.06;18496699;32;20089;-58
2023/01/18 15:37:46;;;;;;;1.05;1.05;;;;;;;9.62;61.97;98805.84;18497580;32;20454;-58
2023/01/18 15:47:51;;;;;;;1.10;1.02;;;;;;;9.32;62.34;98789.22;18495852;32;20675;-58
2023/01/18 15:57:58;;;;;;;0.60;0.60;;;;;;;8.92;63.17;98811.75;18494042;32;20433;-59
2023/01/18 16:08:16;;;;;;;2.50;2.40;;;;;;;8.72;63.41;98858.09;18493280;32;20158;-59
2023/01/18 16:18:22;;;;;;;1.62;1.52;;;;;;;8.45;64.58;98875.06;18492902;32;20166;-58
2023/01/18 16:28:25;;;;;;;1.42;1.37;;;;;;;8.33;65.09;98881.31;18494044;32;20109;-58
2023/01/18 16:38:30;;;;;;;5.10;1.48;;;;;;;8.30;65.55;98904.78;18492761;32;20115;-59
2023/01/18 16:48:33;;;;;;;1.90;1.80;;;;;;;8.17;66.08;98898.94;18491932;32;20101;-59
2023/01/18 16:58:38;;;;;;;2.75;2.45;;;;;;;8.15;66.39;98893.75;18491606;32;20096;-58
2023/01/18 17:08:41;;;;;;;0.65;0.65;;;;;;;8.23;66.40;98882.38;18487275;32;20128;-59
2023/01/18 17:18:46;;;;;;;1.23;1.12;;;;;;;8.17;66.94;98902.41;18497305;32;20118;-59
2023/01/18 17:28:49;;;;;;;2.53;2.37;;;;;;;8.24;66.95;98934.34;18497105;32;20123;-58
2023/01/18 17:38:55;;;;;;;6.90;4.53;;;;;;;8.10;67.60;98924.16;18498636;32;20373;-59
2023/01/18 17:48:58;;;;;;;1.85;1.75;;;;;;;8.22;67.14;98938.72;18495796;32;20121;-59
2023/01/18 17:59:08;;;;;;;2.05;1.90;;;;;;;8.22;67.42;98975.13;18495658;32;20459;-59
2023/01/18 18:09:11;;;;;;;3.42;3.12;;;;;;;8.38;66.97;98980.06;18487012;32;20112;-58
2023/01/18 18:19:16;;;;;;;1.83;1.73;;;;;;;8.24;67.87;99008.88;18492411;32;20421;-58
2023/01/18 18:29:20;;;;;;;1.27;1.25;;;;;;;8.33;67.65;99003.53;18497221;32;20143;-59
2023/01/18 18:39:24;;;;;;;2.22;1.83;;;;;;;7.31;72.92;99021.31;18496408;32;20473;-58
2023/01/18 18:49:28;;;;;;;5.97;2.55;;;;;;;8.03;69.39;99005.72;18495250;32;20558;-59
2023/01/18 18:59:33;;;;;;;0.65;0.65;;;;;;;7.49;71.77;98999.47;18495563;32;20106;-58
2023/01/18 19:09:36;;;;;;;2.28;2.10;;;;;;;8.15;69.38;99005.50;18494239;32;20146;-64
2023/01/18 19:19:41;;;;;;;2.35;2.15;;;;;;;8.30;68.72;98990.59;18442211;32;20103;-59
2023/01/18 19:29:44;;;;;;;7.62;6.28;;;;;;;8.36;68.40;98994.81;18429598;32;20374;-59
2023/01/18 19:39:50;;;;;;;1.20;1.12;;;;;;;8.46;68.11;98999.00;18440804;32;20100;-59
2023/01/18 19:49:55;;;;;;;1.40;1.35;;;;;;;8.37;68.31;99004.34;18460387;32;20093;-58
2023/01/18 20:00:02;;;;;;;0.88;0.88;;;;;;;8.44;68.42;99011.16;18492479;32;20100;-58
2023/01/18 20:10:07;;;;;;;0.95;0.95;;;;;;;8.61;67.61;99013.53;18492059;32;20080;-59
2023/01/18 20:20:13;;;;;;;0.70;0.70;;;;;;;8.48;67.67;99012.81;18490902;32;20146;-59
2023/01/18 20:30:33;;;;;;;1.27;1.23;;;;;;;8.56;67.72;99015.34;18480520;32;20112;-58
2023/01/18 20:40:37;;;;;;;0.60;0.60;;;;;;;8.47;68.30;99022.38;18465980;32;20174;-59
2023/01/18 20:50:41;;;;;;;1.50;1.37;;;;;;;8.40;68.47;99025.13;18495137;32;20132;-58
2023/01/18 21:00:46;;;;;;;0.60;0.60;;;;;;;8.54;68.15;99007.56;18492742;32;20550;-59
2023/01/18 21:10:50;;;;;;;1.37;1.35;;;;;;;8.54;68.48;99022.34;18496977;32;20361;-58
2023/01/18 21:20:56;;;;;;;1.80;1.70;;;;;;;8.52;68.71;99043.16;18488877;32;20233;-58
2023/01/18 21:30:59;;;;;;;1.20;1.00;;;;;;;8.44;68.84;99021.56;18492399;32;20154;-59
2023/01/18 22:01:45;;;;;;;2.35;2.15;;;;;;;8.23;69.91;98983.75;18497390;32;20088;-59
2023/01/18 22:11:50;;;;;;;0.88;0.88;;;;;;;8.37;69.32;98976.59;18497680;32;20101;-59
2023/01/18 22:21:54;;;;;;;1.12;1.12;;;;;;;8.27;69.69;98994.09;18497376;32;20114;-59
2023/01/18 22:31:57;;;;;;;0.88;0.88;;;;;;;8.20;70.21;99002.84;18498289;32;20092;-59
2023/01/18 22:42:02;;;;;;;1.25;1.12;;;;;;;8.42;69.52;99023.34;18497026;32;20484;-59
2023/01/18 22:52:05;;;;;;;1.40;1.30;;;;;;;8.22;70.24;99000.25;18494446;32;20108;-59
2023/01/18 23:02:10;;;;;;;0.93;0.93;;;;;;;7.93;71.27;99004.13;18494827;32;20166;-59
2023/01/18 23:12:13;;;;;;;1.02;1.02;;;;;;;8.31;70.25;98997.50;18497110;32;20139;-59
2023/01/18 23:22:17;;;;;;;3.33;1.45;;;;;;;8.35;69.83;98988.78;18496122;32;20115;-61
2023/01/18 23:32:25;;;;;;;0.85;0.80;;;;;;;8.25;69.85;98976.78;18495821;32;20105;-61
